sensor_id;sensor_type;location;lat;lon;timestamp;pressure;altitude;pressure_sealevel;temperature;humidity
41800;BME280;27468;47.460;19.034;2024-02-15T00:00:10;101145.97;;;8.08;70.63
41800;BME280;27468;47.460;19.034;2024-02-15T00:02:35;101137.19;;;8.10;69.93
41800;BME280;27468;47.460;19.034;2024-02-15T00:05:01;101157.34;;;8.22;70.24
41800;BME280;27468;47.460;19.034;2024-02-15T00:07:26;101155.59;;;8.25;69.97
41800;BME280;27468;47.460;19.034;2024-02-15T00:09:52;101151.28;;;8.34;69.47
41800;BME280;27468;47.460;19.034;2024-02-15T00:12:19;101129.34;;;8.22;69.51
41800;BME280;27468;47.460;19.034;2024-02-15T00:14:44;101148.59;;;8.20;69.57
41800;BME280;27468;47.460;19.034;2024-02-15T00:17:09;101161.72;;;8.24;69.55
41800;BME280;27468;47.460;19.034;2024-02-15T00:19:37;101144.19;;;8.16;70.11
41800;BME280;27468;47.460;19.034;2024-02-15T00:22:03;101139.84;;;8.25;69.55
41800;BME280;27468;47.460;19.034;2024-02-15T00:24:29;101128.47;;;8.29;69.69
41800;BME280;27468;47.460;19.034;2024-02-15T00:26:56;101138.16;;;8.37;69.34
41800;BME280;27468;47.460;19.034;2024-02-15T00:29:21;101136.34;;;8.28;69.41
41800;BME280;27468;47.460;19.034;2024-02-15T00:31:46;101135.47;;;8.31;69.38
41800;BME280;27468;47.460;19.034;2024-02-15T00:34:12;101114.47;;;8.29;68.96
41800;BME280;27468;47.460;19.034;2024-02-15T00:36:37;101138.16;;;8.37;68.74
41800;BME280;27468;47.460;19.034;2024-02-15T00:39:02;101131.06;;;8.17;68.78
41800;BME280;27468;47.460;19.034;2024-02-15T00:41:31;101119.72;;;8.29;68.83
41800;BME280;27468;47.460;19.034;2024-02-15T00:43:58;101123.25;;;8.33;68.63
41800;BME280;27468;47.460;19.034;2024-02-15T00:46:24;101127.59;;;8.27;68.94
41800;BME280;27468;47.460;19.034;2024-02-15T00:48:52;101143.34;;;8.29;68.95
41800;BME280;27468;47.460;19.034;2024-02-15T00:51:17;101154.78;;;8.39;68.99
41800;BME280;27468;47.460;19.034;2024-02-15T00:53:43;101153.88;;;8.29;69.00
41800;BME280;27468;47.460;19.034;2024-02-15T00:56:08;101125.84;;;8.23;68.95
41800;BME280;27468;47.460;19.034;2024-02-15T00:58:33;101138.97;;;8.26;68.95
41800;BME280;27468;47.460;19.034;2024-02-15T01:00:59;101145.09;;;8.25;69.12
41800;BME280;27468;47.460;19.034;2024-02-15T01:03:24;101129.34;;;8.24;68.75
41800;BME280;27468;47.460;19.034;2024-02-15T01:05:50;101126.75;;;8.35;68.61
41800;BME280;27468;47.460;19.034;2024-02-15T01:08:16;101145.13;;;8.32;68.91
41800;BME280;27468;47.460;19.034;2024-02-15T01:10:42;101128.50;;;8.36;68.66
41800;BME280;27468;47.460;19.034;2024-02-15T01:13:07;101159.13;;;8.27;69.38
41800;BME280;27468;47.460;19.034;2024-02-15T01:15:33;101141.59;;;8.29;69.58
41800;BME280;27468;47.460;19.034;2024-02-15T01:17:59;101143.34;;;8.29;69.75
41800;BME280;27468;47.460;19.034;2024-02-15T01:20:24;101153.94;;;8.50;68.64
41800;BME280;27468;47.460;19.034;2024-02-15T01:22:49;101146.06;;;8.52;69.01
41800;BME280;27468;47.460;19.034;2024-02-15T01:25:16;101145.19;;;8.56;68.66
41800;BME280;27468;47.460;19.034;2024-02-15T01:27:42;101139.06;;;8.55;68.44
41800;BME280;27468;47.460;19.034;2024-02-15T01:30:08;101139.94;;;8.60;68.56
41800;BME280;27468;47.460;19.034;2024-02-15T01:32:35;101133.81;;;8.62;68.62
41800;BME280;27468;47.460;19.034;2024-02-15T01:35:00;101126.78;;;8.53;68.81
41800;BME280;27468;47.460;19.034;2024-02-15T01:37:26;101145.19;;;8.65;69.28
41800;BME280;27468;47.460;19.034;2024-02-15T01:39:51;101124.16;;;8.59;69.47
41800;BME280;27468;47.460;19.034;2024-02-15T01:42:17;101128.53;;;8.62;69.64
41800;BME280;27468;47.460;19.034;2024-02-15T01:44:43;101142.53;;;8.68;69.59
41800;BME280;27468;47.460;19.034;2024-02-15T01:47:13;101138.19;;;8.61;69.86
41800;BME280;27468;47.460;19.034;2024-02-15T01:49:38;101136.41;;;8.69;70.30
41800;BME280;27468;47.460;19.034;2024-02-15T01:52:05;101125.03;;;8.61;70.19
41800;BME280;27468;47.460;19.034;2024-02-15T01:54:33;101135.53;;;8.70;70.49
41800;BME280;27468;47.460;19.034;2024-02-15T01:56:59;101120.66;;;8.65;70.22
41800;BME280;27468;47.460;19.034;2024-02-15T01:59:25;101124.13;;;8.70;70.06
41800;BME280;27468;47.460;19.034;2024-02-15T02:01:50;101119.78;;;8.63;70.18
41800;BME280;27468;47.460;19.034;2024-02-15T02:04:16;101113.66;;;8.56;70.71
41800;BME280;27468;47.460;19.034;2024-02-15T02:06:41;101129.38;;;8.71;70.88
41800;BME280;27468;47.460;19.034;2024-02-15T02:09:13;101124.13;;;8.71;70.99
41800;BME280;27468;47.460;19.034;2024-02-15T02:11:44;101116.28;;;8.60;70.90
41800;BME280;27468;47.460;19.034;2024-02-15T02:14:10;101112.75;;;8.37;71.82
41800;BME280;27468;47.460;19.034;2024-02-15T02:16:36;101105.75;;;8.36;72.31
41800;BME280;27468;47.460;19.034;2024-02-15T02:19:04;101117.13;;;8.35;72.46
41800;BME280;27468;47.460;19.034;2024-02-15T02:21:33;101114.47;;;8.32;73.01
41800;BME280;27468;47.460;19.034;2024-02-15T02:24:02;101118.88;;;8.33;73.14
41800;BME280;27468;47.460;19.034;2024-02-15T02:26:28;101097.81;;;8.21;73.48
41800;BME280;27468;47.460;19.034;2024-02-15T02:28:54;101096.91;;;8.10;73.68
41800;BME280;27468;47.460;19.034;2024-02-15T02:31:20;101093.41;;;8.14;73.73
41800;BME280;27468;47.460;19.034;2024-02-15T02:33:51;101117.06;;;8.24;74.00
41800;BME280;27468;47.460;19.034;2024-02-15T02:36:17;101120.56;;;8.14;73.69
41800;BME280;27468;47.460;19.034;2024-02-15T02:38:43;101113.56;;;8.15;73.84
41800;BME280;27468;47.460;19.034;2024-02-15T02:41:10;101118.81;;;8.15;73.27
41800;BME280;27468;47.460;19.034;2024-02-15T02:43:36;101116.19;;;8.21;72.88
41800;BME280;27468;47.460;19.034;2024-02-15T02:46:02;101108.31;;;8.19;72.58
41800;BME280;27468;47.460;19.034;2024-02-15T02:48:30;101103.94;;;8.17;72.99
41800;BME280;27468;47.460;19.034;2024-02-15T02:50:55;101113.56;;;8.22;72.86
41800;BME280;27468;47.460;19.034;2024-02-15T02:53:20;101107.44;;;8.19;72.49
41800;BME280;27468;47.460;19.034;2024-02-15T02:55:46;101112.69;;;8.22;72.55
41800;BME280;27468;47.460;19.034;2024-02-15T02:58:11;101119.69;;;8.03;72.75
41800;BME280;27468;47.460;19.034;2024-02-15T03:00:37;101124.94;;;8.03;73.46
41800;BME280;27468;47.460;19.034;2024-02-15T03:03:02;101113.56;;;8.06;73.12
41800;BME280;27468;47.460;19.034;2024-02-15T03:05:28;101112.69;;;8.08;72.94
41800;BME280;27468;47.460;19.034;2024-02-15T03:07:54;101125.81;;;8.11;72.96
41800;BME280;27468;47.460;19.034;2024-02-15T03:10:20;101124.94;;;8.17;72.82
41800;BME280;27468;47.460;19.034;2024-02-15T03:12:45;101123.16;;;7.96;73.32
41800;BME280;27468;47.460;19.034;2024-02-15T03:15:13;101134.53;;;7.87;73.47
41800;BME280;27468;47.460;19.034;2024-02-15T03:17:40;101127.53;;;7.92;73.49
41800;BME280;27468;47.460;19.034;2024-02-15T03:20:07;101131.06;;;8.01;73.25
41800;BME280;27468;47.460;19.034;2024-02-15T03:22:54;101127.56;;;7.97;73.32
41800;BME280;27468;47.460;19.034;2024-02-15T03:25:20;101110.00;;;7.82;73.46
41800;BME280;27468;47.460;19.034;2024-02-15T03:27:52;101131.06;;;7.98;73.59
41800;BME280;27468;47.460;19.034;2024-02-15T03:30:18;101115.28;;;7.91;73.28
41800;BME280;27468;47.460;19.034;2024-02-15T03:32:47;101126.66;;;7.87;73.32
41800;BME280;27468;47.460;19.034;2024-02-15T03:35:14;101120.50;;;7.82;73.53
41800;BME280;27468;47.460;19.034;2024-02-15T03:37:40;101113.50;;;7.86;73.40
41800;BME280;27468;47.460;19.034;2024-02-15T03:40:07;101128.38;;;7.81;73.86
41800;BME280;27468;47.460;19.034;2024-02-15T03:42:33;101126.66;;;7.87;73.92
41800;BME280;27468;47.460;19.034;2024-02-15T03:45:04;101122.28;;;7.97;73.25
41800;BME280;27468;47.460;19.034;2024-02-15T03:47:33;101131.94;;;8.01;73.37
41800;BME280;27468;47.460;19.034;2024-02-15T03:50:01;101114.44;;;8.02;73.05
41800;BME280;27468;47.460;19.034;2024-02-15T03:52:26;101131.94;;;8.19;72.87
41800;BME280;27468;47.460;19.034;2024-02-15T03:54:52;101127.56;;;8.18;73.06
41800;BME280;27468;47.460;19.034;2024-02-15T03:57:18;101126.69;;;8.18;73.35
41800;BME280;27468;47.460;19.034;2024-02-15T03:59:46;101110.03;;;8.11;73.35
41800;BME280;27468;47.460;19.034;2024-02-15T04:02:15;101124.94;;;8.09;73.56
41800;BME280;27468;47.460;19.034;2024-02-15T04:04:41;101124.06;;;8.19;73.04
41800;BME280;27468;47.460;19.034;2024-02-15T04:07:08;101117.94;;;8.19;73.33
41800;BME280;27468;47.460;19.034;2024-02-15T04:09:34;101122.34;;;8.31;73.13
41800;BME280;27468;47.460;19.034;2024-02-15T04:12:01;101125.84;;;8.26;73.03
41800;BME280;27468;47.460;19.034;2024-02-15T04:14:26;101113.59;;;8.27;72.66
41800;BME280;27468;47.460;19.034;2024-02-15T04:16:52;101120.59;;;8.28;72.13
41800;BME280;27468;47.460;19.034;2024-02-15T04:19:18;101118.00;;;8.33;71.80
41800;BME280;27468;47.460;19.034;2024-02-15T04:21:45;101118.88;;;8.35;71.91
41800;BME280;27468;47.460;19.034;2024-02-15T04:24:12;101110.06;;;8.26;72.35
41800;BME280;27468;47.460;19.034;2024-02-15T04:26:38;101117.09;;;8.32;72.73
41800;BME280;27468;47.460;19.034;2024-02-15T04:29:04;101121.50;;;8.41;71.92
41800;BME280;27468;47.460;19.034;2024-02-15T04:31:29;101099.63;;;8.36;72.06
41800;BME280;27468;47.460;19.034;2024-02-15T04:33:55;101117.13;;;8.44;72.23
41800;BME280;27468;47.460;19.034;2024-02-15T04:36:21;101109.25;;;8.44;72.26
41800;BME280;27468;47.460;19.034;2024-02-15T04:38:51;101106.63;;;8.41;71.98
41800;BME280;27468;47.460;19.034;2024-02-15T04:41:17;101080.31;;;8.32;72.26
41800;BME280;27468;47.460;19.034;2024-02-15T04:43:46;101100.50;;;8.36;71.62
41800;BME280;27468;47.460;19.034;2024-02-15T04:46:12;101113.63;;;8.42;71.38
41800;BME280;27468;47.460;19.034;2024-02-15T04:48:39;101106.63;;;8.40;71.73
41800;BME280;27468;47.460;19.034;2024-02-15T04:51:06;101111.00;;;8.35;71.66
41800;BME280;27468;47.460;19.034;2024-02-15T04:53:32;101089.94;;;8.24;71.38
41800;BME280;27468;47.460;19.034;2024-02-15T04:55:57;101095.16;;;8.10;72.09
41800;BME280;27468;47.460;19.034;2024-02-15T04:58:26;101120.59;;;8.25;72.31
41800;BME280;27468;47.460;19.034;2024-02-15T05:00:53;101124.09;;;8.28;71.73
41800;BME280;27468;47.460;19.034;2024-02-15T05:03:22;101117.94;;;8.19;72.41
41800;BME280;27468;47.460;19.034;2024-02-15T05:05:48;101116.19;;;8.00;73.15
41800;BME280;27468;47.460;19.034;2024-02-15T05:08:13;101139.84;;;8.22;72.74
41800;BME280;27468;47.460;19.034;2024-02-15T05:10:39;101128.47;;;8.23;72.40
41800;BME280;27468;47.460;19.034;2024-02-15T05:13:04;101121.44;;;8.18;72.43
41800;BME280;27468;47.460;19.034;2024-02-15T05:15:29;101124.97;;;8.26;72.27
41800;BME280;27468;47.460;19.034;2024-02-15T05:17:56;101131.09;;;8.31;72.22
41800;BME280;27468;47.460;19.034;2024-02-15T05:20:21;101132.81;;;8.18;72.48
41800;BME280;27468;47.460;19.034;2024-02-15T05:22:46;101139.81;;;8.13;73.38
41800;BME280;27468;47.460;19.034;2024-02-15T05:25:12;101123.19;;;8.13;73.15
41800;BME280;27468;47.460;19.034;2024-02-15T05:27:37;101132.81;;;8.11;73.29
41800;BME280;27468;47.460;19.034;2024-02-15T05:30:03;101154.72;;;8.22;73.20
41800;BME280;27468;47.460;19.034;2024-02-15T05:32:33;101150.41;;;8.33;72.72
41800;BME280;27468;47.460;19.034;2024-02-15T05:35:00;101134.66;;;8.39;73.11
41800;BME280;27468;47.460;19.034;2024-02-15T05:37:27;101145.16;;;8.47;72.54
41800;BME280;27468;47.460;19.034;2024-02-15T05:39:52;101133.78;;;8.39;72.87
41800;BME280;27468;47.460;19.034;2024-02-15T05:42:20;101144.22;;;8.25;73.67
41800;BME280;27468;47.460;19.034;2024-02-15T05:44:45;101156.56;;;8.43;73.53
41800;BME280;27468;47.460;19.034;2024-02-15T05:47:11;101146.03;;;8.46;74.15
41800;BME280;27468;47.460;19.034;2024-02-15T05:49:36;101156.56;;;8.46;74.64
41800;BME280;27468;47.460;19.034;2024-02-15T05:52:02;101132.03;;;8.47;74.81
41800;BME280;27468;47.460;19.034;2024-02-15T05:54:27;101145.19;;;8.56;75.01
41800;BME280;27468;47.460;19.034;2024-02-15T05:56:53;101132.03;;;8.51;75.38
41800;BME280;27468;47.460;19.034;2024-02-15T05:59:20;101139.91;;;8.48;75.81
41800;BME280;27468;47.460;19.034;2024-02-15T06:01:46;101160.09;;;8.62;76.08
41800;BME280;27468;47.460;19.034;2024-02-15T06:04:14;101160.09;;;8.60;75.88
41800;BME280;27468;47.460;19.034;2024-02-15T06:06:40;101143.41;;;8.41;76.84
41800;BME280;27468;47.460;19.034;2024-02-15T06:09:05;101166.19;;;8.47;76.79
41800;BME280;27468;47.460;19.034;2024-02-15T06:11:30;101174.97;;;8.53;76.72
41800;BME280;27468;47.460;19.034;2024-02-15T06:13:56;101161.84;;;8.58;76.50
41800;BME280;27468;47.460;19.034;2024-02-15T06:16:21;101176.63;;;8.24;77.50
41800;BME280;27468;47.460;19.034;2024-02-15T06:18:47;101167.94;;;8.45;76.92
41800;BME280;27468;47.460;19.034;2024-02-15T06:21:13;101174.09;;;8.48;76.62
41800;BME280;27468;47.460;19.034;2024-02-15T06:23:38;101188.09;;;8.55;76.53
41800;BME280;27468;47.460;19.034;2024-02-15T06:26:03;101173.22;;;8.57;75.49
41800;BME280;27468;47.460;19.034;2024-02-15T06:28:29;101188.97;;;8.72;75.29
41800;BME280;27468;47.460;19.034;2024-02-15T06:31:14;101164.44;;;8.67;75.11
41800;BME280;27468;47.460;19.034;2024-02-15T06:33:58;101188.09;;;8.82;74.81
41800;BME280;27468;47.460;19.034;2024-02-15T06:36:54;101187.22;;;8.79;74.58
41800;BME280;27468;47.460;19.034;2024-02-15T06:39:39;101180.22;;;8.76;73.87
41800;BME280;27468;47.460;19.034;2024-02-15T06:42:08;101173.19;;;8.72;74.53
41800;BME280;27468;47.460;19.034;2024-02-15T06:44:33;101193.38;;;8.81;74.49
41800;BME280;27468;47.460;19.034;2024-02-15T06:46:59;101179.34;;;8.79;73.83
41800;BME280;27468;47.460;19.034;2024-02-15T06:49:25;101198.63;;;8.76;73.72
41800;BME280;27468;47.460;19.034;2024-02-15T06:51:50;101196.00;;;8.75;74.07
41800;BME280;27468;47.460;19.034;2024-02-15T06:54:16;101193.38;;;8.79;73.33
41800;BME280;27468;47.460;19.034;2024-02-15T06:56:43;101187.22;;;8.71;73.34
41800;BME280;27468;47.460;19.034;2024-02-15T06:59:12;101188.09;;;8.84;73.28
41800;BME280;27468;47.460;19.034;2024-02-15T07:01:42;101206.53;;;8.94;72.63
41800;BME280;27468;47.460;19.034;2024-02-15T07:04:08;101214.41;;;9.02;72.60
41800;BME280;27468;47.460;19.034;2024-02-15T07:06:39;101160.06;;;8.84;72.45
41800;BME280;27468;47.460;19.034;2024-02-15T07:09:05;101211.78;;;9.13;71.76
41800;BME280;27468;47.460;19.034;2024-02-15T07:11:32;101210.03;;;9.12;71.69
41800;BME280;27468;47.460;19.034;2024-02-15T07:13:59;101188.09;;;9.05;71.54
41800;BME280;27468;47.460;19.034;2024-02-15T07:16:24;101173.22;;;8.95;71.78
41800;BME280;27468;47.460;19.034;2024-02-15T07:18:50;101210.91;;;9.17;71.77
41800;BME280;27468;47.460;19.034;2024-02-15T07:21:15;101206.53;;;9.16;71.41
41800;BME280;27468;47.460;19.034;2024-02-15T07:23:42;101204.75;;;9.18;71.11
41800;BME280;27468;47.460;19.034;2024-02-15T07:26:07;101210.88;;;9.24;71.23
41800;BME280;27468;47.460;19.034;2024-02-15T07:28:33;101203.00;;;9.05;71.54
41800;BME280;27468;47.460;19.034;2024-02-15T07:30:58;101196.88;;;9.06;71.19
41800;BME280;27468;47.460;19.034;2024-02-15T07:33:25;101195.13;;;9.15;70.72
41800;BME280;27468;47.460;19.034;2024-02-15T07:35:51;101186.34;;;9.16;70.90
41800;BME280;27468;47.460;19.034;2024-02-15T07:38:17;101223.19;;;9.16;70.78
41800;BME280;27468;47.460;19.034;2024-02-15T07:40:43;101213.50;;;9.35;69.70
41800;BME280;27468;47.460;19.034;2024-02-15T07:43:09;101169.69;;;9.19;70.21
41800;BME280;27468;47.460;19.034;2024-02-15T07:45:35;101185.47;;;9.16;69.78
41800;BME280;27468;47.460;19.034;2024-02-15T07:48:03;101196.00;;;9.22;69.35
41800;BME280;27468;47.460;19.034;2024-02-15T07:50:30;101181.97;;;9.23;69.16
41800;BME280;27468;47.460;19.034;2024-02-15T07:52:55;101213.47;;;9.43;69.12
41800;BME280;27468;47.460;19.034;2024-02-15T07:55:21;101196.00;;;9.07;68.38
41800;BME280;27468;47.460;19.034;2024-02-15T07:57:46;101194.19;;;9.36;68.05
41800;BME280;27468;47.460;19.034;2024-02-15T08:00:13;101194.19;;;9.42;67.43
41800;BME280;27468;47.460;19.034;2024-02-15T08:02:44;101212.56;;;9.54;67.13
41800;BME280;27468;47.460;19.034;2024-02-15T08:05:11;101183.63;;;9.56;67.18
41800;BME280;27468;47.460;19.034;2024-02-15T08:07:44;101198.50;;;9.69;66.76
41800;BME280;27468;47.460;19.034;2024-02-15T08:10:11;101202.00;;;9.68;66.70
41800;BME280;27468;47.460;19.034;2024-02-15T08:12:40;101216.06;;;9.61;67.52
41800;BME280;27468;47.460;19.034;2024-02-15T08:15:07;101187.97;;;9.71;66.89
41800;BME280;27468;47.460;19.034;2024-02-15T08:17:40;101197.53;;;9.84;66.83
41800;BME280;27468;47.460;19.034;2024-02-15T08:20:10;101212.47;;;9.85;66.41
41800;BME280;27468;47.460;19.034;2024-02-15T08:22:36;101201.03;;;9.92;65.43
41800;BME280;27468;47.460;19.034;2024-02-15T08:25:12;101218.56;;;9.99;65.86
41800;BME280;27468;47.460;19.034;2024-02-15T08:27:42;101222.06;;;10.04;65.54
41800;BME280;27468;47.460;19.034;2024-02-15T08:30:10;101209.75;;;10.03;65.34
41800;BME280;27468;47.460;19.034;2024-02-15T08:32:37;101204.53;;;9.97;65.84
41800;BME280;27468;47.460;19.034;2024-02-15T08:35:02;101217.63;;;10.12;64.98
41800;BME280;27468;47.460;19.034;2024-02-15T08:37:30;101200.09;;;10.08;65.23
41800;BME280;27468;47.460;19.034;2024-02-15T08:39:56;101179.97;;;9.92;65.60
41800;BME280;27468;47.460;19.034;2024-02-15T08:42:22;101193.94;;;10.08;65.64
41800;BME280;27468;47.460;19.034;2024-02-15T08:44:50;101186.84;;;10.27;65.32
41800;BME280;27468;47.460;19.034;2024-02-15T08:47:16;101180.72;;;10.26;65.34
41800;BME280;27468;47.460;19.034;2024-02-15T08:49:42;101174.50;;;10.38;64.75
41800;BME280;27468;47.460;19.034;2024-02-15T08:52:07;101192.97;;;10.35;65.22
41800;BME280;27468;47.460;19.034;2024-02-15T08:54:35;101185.81;;;10.49;64.59
41800;BME280;27468;47.460;19.034;2024-02-15T08:57:04;101209.47;;;10.58;64.70
41800;BME280;27468;47.460;19.034;2024-02-15T08:59:29;101228.72;;;10.75;63.84
41800;BME280;27468;47.460;19.034;2024-02-15T09:01:55;101227.03;;;10.65;64.84
41800;BME280;27468;47.460;19.034;2024-02-15T09:04:21;101213.78;;;10.73;63.63
41800;BME280;27468;47.460;19.034;2024-02-15T09:06:48;101210.22;;;10.78;64.25
41800;BME280;27468;47.460;19.034;2024-02-15T09:09:14;101217.22;;;10.82;63.38
41800;BME280;27468;47.460;19.034;2024-02-15T09:11:39;101197.91;;;10.79;62.88
41800;BME280;27468;47.460;19.034;2024-02-15T09:14:04;101204.91;;;10.86;63.42
41800;BME280;27468;47.460;19.034;2024-02-15T09:16:30;101200.31;;;11.05;62.86
41800;BME280;27468;47.460;19.034;2024-02-15T09:18:56;101201.03;;;11.25;62.22
41800;BME280;27468;47.460;19.034;2024-02-15T09:21:25;101215.06;;;11.30;61.26
41800;BME280;27468;47.460;19.034;2024-02-15T09:23:53;101218.63;;;11.23;62.17
41800;BME280;27468;47.460;19.034;2024-02-15T09:26:19;101208.13;;;11.15;61.94
41800;BME280;27468;47.460;19.034;2024-02-15T09:28:44;101195.78;;;11.22;61.37
41800;BME280;27468;47.460;19.034;2024-02-15T09:31:12;101217.72;;;11.25;61.07
41800;BME280;27468;47.460;19.034;2024-02-15T09:33:39;101218.41;;;11.47;60.90
41800;BME280;27468;47.460;19.034;2024-02-15T09:36:04;101217.50;;;11.51;60.24
41800;BME280;27468;47.460;19.034;2024-02-15T09:38:30;101222.75;;;11.54;60.11
41800;BME280;27468;47.460;19.034;2024-02-15T09:40:55;101224.72;;;11.30;61.00
41800;BME280;27468;47.460;19.034;2024-02-15T09:43:20;101217.50;;;11.50;60.22
41800;BME280;27468;47.460;19.034;2024-02-15T09:45:47;101213.00;;;11.56;59.97
41800;BME280;27468;47.460;19.034;2024-02-15T09:48:14;101207.00;;;11.42;60.70
41800;BME280;27468;47.460;19.034;2024-02-15T09:50:43;101197.38;;;11.38;60.15
41800;BME280;27468;47.460;19.034;2024-02-15T09:53:12;101227.06;;;11.58;59.67
41800;BME280;27468;47.460;19.034;2024-02-15T09:55:39;101218.97;;;11.75;59.19
41800;BME280;27468;47.460;19.034;2024-02-15T09:58:07;101224.03;;;11.97;58.25
41800;BME280;27468;47.460;19.034;2024-02-15T10:00:34;101217.28;;;11.68;58.75
41800;BME280;27468;47.460;19.034;2024-02-15T10:03:00;101226.13;;;11.64;58.97
41800;BME280;27468;47.460;19.034;2024-02-15T10:05:27;101217.22;;;11.73;58.24
41800;BME280;27468;47.460;19.034;2024-02-15T10:07:52;101219.72;;;11.89;58.01
41800;BME280;27468;47.460;19.034;2024-02-15T10:10:19;101208.00;;;12.10;57.47
41800;BME280;27468;47.460;19.034;2024-02-15T10:12:52;101198.63;;;11.85;57.55
41800;BME280;27468;47.460;19.034;2024-02-15T10:15:35;101208.41;;;11.77;57.36
41800;BME280;27468;47.460;19.034;2024-02-15T10:18:02;101219.91;;;11.70;57.27
41800;BME280;27468;47.460;19.034;2024-02-15T10:20:28;101213.69;;;11.74;57.11
41800;BME280;27468;47.460;19.034;2024-02-15T10:23:09;101210.72;;;12.06;56.55
41800;BME280;27468;47.460;19.034;2024-02-15T10:25:35;101205.97;;;12.29;55.79
41800;BME280;27468;47.460;19.034;2024-02-15T10:28:05;101216.25;;;12.52;54.90
41800;BME280;27468;47.460;19.034;2024-02-15T10:30:33;101201.47;;;12.36;55.16
41800;BME280;27468;47.460;19.034;2024-02-15T10:32:59;101217.91;;;12.59;54.14
41800;BME280;27468;47.460;19.034;2024-02-15T10:35:24;101204.97;;;12.38;54.15
41800;BME280;27468;47.460;19.034;2024-02-15T10:37:50;101214.38;;;12.59;53.87
41800;BME280;27468;47.460;19.034;2024-02-15T10:40:20;101213.91;;;12.87;53.11
41800;BME280;27468;47.460;19.034;2024-02-15T10:42:47;101204.19;;;12.89;52.71
41800;BME280;27468;47.460;19.034;2024-02-15T10:45:15;101194.84;;;12.67;53.49
41800;BME280;27468;47.460;19.034;2024-02-15T10:47:44;101198.84;;;12.91;52.80
41800;BME280;27468;47.460;19.034;2024-02-15T10:50:11;101199.72;;;12.92;52.08
41800;BME280;27468;47.460;19.034;2024-02-15T10:52:40;101208.66;;;12.84;52.64
41800;BME280;27468;47.460;19.034;2024-02-15T10:55:10;101206.69;;;12.99;52.91
41800;BME280;27468;47.460;19.034;2024-02-15T10:57:40;101201.47;;;12.94;52.58
41800;BME280;27468;47.460;19.034;2024-02-15T11:00:11;101198.03;;;12.87;52.28
41800;BME280;27468;47.460;19.034;2024-02-15T11:03:01;101188.78;;;13.16;51.94
41800;BME280;27468;47.460;19.034;2024-02-15T11:05:31;101199.28;;;13.20;52.00
41800;BME280;27468;47.460;19.034;2024-02-15T11:07:58;101194.50;;;13.39;51.74
41800;BME280;27468;47.460;19.034;2024-02-15T11:10:25;101181.44;;;13.29;51.72
41800;BME280;27468;47.460;19.034;2024-02-15T11:12:51;101172.13;;;13.08;51.08
41800;BME280;27468;47.460;19.034;2024-02-15T11:18:00;101190.88;;;13.45;50.69
41800;BME280;27468;47.460;19.034;2024-02-15T11:23:02;101193.53;;;13.45;51.09
41800;BME280;27468;47.460;19.034;2024-02-15T11:25:36;101192.97;;;13.74;50.52
41800;BME280;27468;47.460;19.034;2024-02-15T11:30:51;101188.34;;;13.85;49.38
41800;BME280;27468;47.460;19.034;2024-02-15T11:33:33;101177.22;;;13.66;50.21
41800;BME280;27468;47.460;19.034;2024-02-15T11:36:06;101162.41;;;13.56;49.98
41800;BME280;27468;47.460;19.034;2024-02-15T11:38:33;101175.25;;;13.76;50.09
41800;BME280;27468;47.460;19.034;2024-02-15T11:43:52;101182.81;;;13.94;49.42
41800;BME280;27468;47.460;19.034;2024-02-15T11:46:22;101175.34;;;13.71;49.37
41800;BME280;27468;47.460;19.034;2024-02-15T11:48:50;101153.59;;;13.54;49.55
41800;BME280;27468;47.460;19.034;2024-02-15T11:54:10;101167.16;;;13.39;49.99
41800;BME280;27468;47.460;19.034;2024-02-15T11:56:55;101171.00;;;13.69;49.77
41800;BME280;27468;47.460;19.034;2024-02-15T11:59:43;101150.56;;;13.74;49.39
41800;BME280;27468;47.460;19.034;2024-02-15T12:02:41;101170.44;;;13.95;49.49
41800;BME280;27468;47.460;19.034;2024-02-15T12:05:24;101148.09;;;14.06;48.97
41800;BME280;27468;47.460;19.034;2024-02-15T12:08:10;101159.19;;;14.24;48.76
41800;BME280;27468;47.460;19.034;2024-02-15T12:11:00;101166.72;;;14.03;48.83
41800;BME280;27468;47.460;19.034;2024-02-15T12:13:50;101140.25;;;14.00;49.06
41800;BME280;27468;47.460;19.034;2024-02-15T12:16:35;101162.78;;;14.21;49.11
41800;BME280;27468;47.460;19.034;2024-02-15T12:19:19;101150.81;;;14.03;49.44
41800;BME280;27468;47.460;19.034;2024-02-15T12:21:44;101148.41;;;13.91;48.91
41800;BME280;27468;47.460;19.034;2024-02-15T12:24:09;101159.78;;;13.54;49.84
41800;BME280;27468;47.460;19.034;2024-02-15T12:26:35;101141.66;;;13.32;49.87
41800;BME280;27468;47.460;19.034;2024-02-15T12:29:00;101149.09;;;13.59;49.35
41800;BME280;27468;47.460;19.034;2024-02-15T12:31:26;101114.63;;;13.61;49.15
41800;BME280;27468;47.460;19.034;2024-02-15T12:34:02;101133.56;;;13.84;49.12
41800;BME280;27468;47.460;19.034;2024-02-15T12:36:32;101127.28;;;13.88;48.69
41800;BME280;27468;47.460;19.034;2024-02-15T12:39:02;101140.84;;;14.14;47.96
41800;BME280;27468;47.460;19.034;2024-02-15T12:41:29;101125.25;;;13.99;47.99
41800;BME280;27468;47.460;19.034;2024-02-15T12:43:55;101132.59;;;14.27;46.92
41800;BME280;27468;47.460;19.034;2024-02-15T12:46:22;101130.81;;;14.27;47.48
41800;BME280;27468;47.460;19.034;2024-02-15T12:48:48;101121.63;;;14.03;47.22
41800;BME280;27468;47.460;19.034;2024-02-15T12:51:15;101110.78;;;14.14;46.35
41800;BME280;27468;47.460;19.034;2024-02-15T12:53:40;101111.28;;;14.31;46.43
41800;BME280;27468;47.460;19.034;2024-02-15T12:56:08;101121.97;;;14.28;46.10
41800;BME280;27468;47.460;19.034;2024-02-15T12:58:34;101118.16;;;14.40;45.39
41800;BME280;27468;47.460;19.034;2024-02-15T13:01:00;101127.50;;;14.17;45.60
41800;BME280;27468;47.460;19.034;2024-02-15T13:03:26;101133.84;;;14.10;45.84